Time;durP1;ratioP1;P1;durP2;ratioP2;P2;SDS_P1;SDS_P2;PMS_P1;PMS_P2;Temp;Humidity;BMP_temperature;BMP_pressure;BME280_temperature;BME280_humidity;BME280_pressure;Samples;Min_cycle;Max_cycle;Signal;HPM_P1;HPM_P2
2021/05/12 00:00:24;;;;;;;14.15;12.75;;;18.70;55.20;;;;;;6149975;23;20130;-80
2021/05/12 00:02:49;;;;;;;13.02;11.77;;;18.70;55.20;;;;;;6149250;23;20182;-80
2021/05/12 00:05:18;;;;;;;13.73;12.43;;;18.70;55.20;;;;;;6150002;23;20154;-80
2021/05/12 00:07:46;;;;;;;13.65;12.32;;;18.70;55.20;;;;;;6150001;23;20138;-80
2021/05/12 00:10:18;;;;;;;13.18;11.88;;;18.70;55.20;;;;;;6150234;23;20147;-79
2021/05/12 00:12:45;;;;;;;13.18;11.93;;;18.70;55.20;;;;;;6150591;23;20146;-80
2021/05/12 00:15:13;;;;;;;14.20;12.80;;;18.70;55.30;;;;;;6200099;23;20131;-80
2021/05/12 00:17:40;;;;;;;13.13;11.82;;;18.70;55.20;;;;;;6174834;23;20143;-80
2021/05/12 00:20:08;;;;;;;13.52;12.23;;;18.70;55.10;;;;;;6149329;23;20206;-80
2021/05/12 00:22:39;;;;;;;13.27;11.90;;;18.70;55.10;;;;;;6149746;23;20227;-80
2021/05/12 00:25:07;;;;;;;13.27;11.98;;;18.70;55.10;;;;;;6127011;23;20154;-80
2021/05/12 00:27:37;;;;;;;13.80;12.40;;;18.70;55.10;;;;;;6149709;23;20154;-80
2021/05/12 00:30:10;;;;;;;13.32;12.02;;;18.70;55.10;;;;;;6173819;23;20142;-79
2021/05/12 00:32:48;;;;;;;14.52;13.02;;;18.70;55.10;;;;;;6149020;23;20190;-80
2021/05/12 00:35:14;;;;;;;14.40;12.98;;;18.70;55.10;;;;;;6200851;23;20169;-79
2021/05/12 00:37:45;;;;;;;13.13;11.82;;;18.70;55.20;;;;;;6174437;23;20146;-80
2021/05/12 00:40:12;;;;;;;14.43;13.00;;;18.70;55.10;;;;;;6175102;23;20130;-80
2021/05/12 00:42:44;;;;;;;13.90;12.55;;;18.70;55.20;;;;;;6174616;23;20170;-80
2021/05/12 00:45:16;;;;;;;14.07;12.68;;;18.70;55.10;;;;;;6149795;23;20181;-80
2021/05/12 00:47:53;;;;;;;14.15;12.75;;;18.70;55.10;;;;;;6174567;23;20131;-80
2021/05/12 00:50:22;;;;;;;13.80;12.40;;;18.70;55.10;;;;;;6176742;23;20210;-79
2021/05/12 00:52:57;;;;;;;13.98;12.68;;;18.70;55.10;;;;;;6173282;23;20138;-80
2021/05/12 00:55:32;;;;;;;14.23;12.82;;;18.70;55.10;;;;;;6149039;23;20142;-80
2021/05/12 00:57:58;;;;;;;13.85;12.45;;;18.70;55.10;;;;;;6149932;23;20138;-80
2021/05/12 01:00:29;;;;;;;13.60;12.30;;;18.70;55.10;;;;;;6200486;23;20131;-80
2021/05/12 01:02:56;;;;;;;13.40;12.10;;;18.70;55.20;;;;;;6200100;23;20194;-80
2021/05/12 01:05:27;;;;;;;13.65;12.32;;;18.70;55.10;;;;;;6173745;23;20582;-80
2021/05/12 01:07:54;;;;;;;13.90;12.60;;;18.70;55.10;;;;;;6149440;23;20141;-79
2021/05/12 01:10:21;;;;;;;13.55;12.25;;;18.70;55.10;;;;;;6174016;23;20159;-80
2021/05/12 01:12:50;;;;;;;13.80;12.40;;;18.70;55.10;;;;;;6174099;23;20135;-81
2021/05/12 01:15:16;;;;;;;13.95;12.65;;;18.70;55.10;;;;;;6149949;23;20142;-80
2021/05/12 01:17:44;;;;;;;14.32;12.82;;;18.70;55.10;;;;;;6149497;23;20195;-80
2021/05/12 01:20:11;;;;;;;14.35;12.93;;;18.70;55.10;;;;;;6174548;23;20131;-79
2021/05/12 01:22:38;;;;;;;14.65;13.25;;;18.60;55.10;;;;;;6174290;23;20167;-79
2021/05/12 01:25:06;;;;;;;14.68;13.27;;;18.60;55.10;;;;;;6174369;23;20138;-80
2021/05/12 01:27:35;;;;;;;13.80;12.43;;;18.60;55.10;;;;;;6174442;23;20131;-80
2021/05/12 01:30:04;;;;;;;14.50;13.02;;;18.60;55.10;;;;;;6173762;23;20686;-80
2021/05/12 01:32:34;;;;;;;14.00;12.60;;;18.70;55.10;;;;;;6173286;23;20194;-80
2021/05/12 01:35:07;;;;;;;14.18;12.70;;;18.70;55.10;;;;;;6174677;23;20139;-79
2021/05/12 01:37:35;;;;;;;13.65;12.35;;;18.60;55.10;;;;;;6175660;23;20191;-80
2021/05/12 01:40:04;;;;;;;14.85;13.35;;;18.70;55.10;;;;;;6201552;23;20194;-80
2021/05/12 01:42:33;;;;;;;14.02;12.63;;;18.70;55.00;;;;;;6176127;23;20167;-79
2021/05/12 01:45:21;;;;;;;13.80;12.40;;;18.70;55.00;;;;;;6175900;23;20199;-80
2021/05/12 01:47:51;;;;;;;14.65;13.25;;;18.70;55.10;;;;;;6172305;23;20209;-80
2021/05/12 01:50:18;;;;;;;14.45;13.05;;;18.70;55.00;;;;;;6176389;23;20131;-80
2021/05/12 01:52:47;;;;;;;13.90;12.50;;;18.70;55.00;;;;;;6150782;23;20207;-79
2021/05/12 01:55:16;;;;;;;14.25;12.85;;;18.70;55.10;;;;;;6201437;23;20142;-80
2021/05/12 01:57:42;;;;;;;14.55;13.05;;;18.70;55.10;;;;;;6175293;23;20132;-80
2021/05/12 02:00:25;;;;;;;13.95;12.55;;;18.70;54.90;;;;;;6175577;23;20214;-80
2021/05/12 02:02:53;;;;;;;15.07;13.48;;;18.70;55.00;;;;;;6176153;23;20163;-80
2021/05/12 02:05:20;;;;;;;14.05;12.65;;;18.70;55.00;;;;;;6201700;23;20127;-80
2021/05/12 02:07:56;;;;;;;14.63;13.23;;;18.60;55.00;;;;;;6175366;23;20135;-80
2021/05/12 02:10:22;;;;;;;14.45;12.65;;;18.70;55.10;;;;;;6175119;23;20131;-80
2021/05/12 02:12:47;;;;;;;14.20;12.75;;;18.60;55.10;;;;;;6151180;23;20226;-80
2021/05/12 02:15:13;;;;;;;14.80;13.40;;;18.60;55.00;;;;;;6151033;23;20146;-80
2021/05/12 02:17:39;;;;;;;14.60;13.10;;;18.60;55.10;;;;;;6175970;23;20219;-79
2021/05/12 02:20:10;;;;;;;13.68;12.30;;;18.60;55.10;;;;;;6175258;23;20138;-80
2021/05/12 02:22:36;;;;;;;14.30;12.90;;;18.60;55.10;;;;;;6151502;23;20225;-80
2021/05/12 02:25:03;;;;;;;14.40;13.00;;;18.60;55.10;;;;;;6150783;23;20138;-80
2021/05/12 02:27:30;;;;;;;14.50;13.10;;;18.60;55.10;;;;;;6151115;23;20139;-81
2021/05/12 02:30:00;;;;;;;14.45;13.05;;;18.60;55.10;;;;;;6150456;23;20181;-80
2021/05/12 02:32:28;;;;;;;14.55;13.13;;;18.60;55.10;;;;;;6176679;23;20526;-80
2021/05/12 02:34:56;;;;;;;14.88;13.35;;;18.60;55.10;;;;;;6149913;23;20159;-80
2021/05/12 02:37:24;;;;;;;14.63;13.23;;;18.60;55.10;;;;;;6150455;23;20130;-79
2021/05/12 02:39:54;;;;;;;15.02;13.52;;;18.60;55.20;;;;;;6175258;23;20146;-80
2021/05/12 02:42:20;;;;;;;14.63;13.13;;;18.60;55.20;;;;;;6201160;23;20217;-80
2021/05/12 02:44:45;;;;;;;14.73;13.30;;;18.60;55.30;;;;;;6175729;23;20131;-80
2021/05/12 02:47:12;;;;;;;14.10;12.80;;;18.50;55.30;;;;;;6175722;23;20135;-80
2021/05/12 02:49:39;;;;;;;14.88;13.35;;;18.60;55.30;;;;;;6175025;23;20127;-80
2021/05/12 02:52:07;;;;;;;14.32;12.93;;;18.60;55.30;;;;;;6175145;23;20234;-80
2021/05/12 02:54:33;;;;;;;14.73;13.23;;;18.60;55.30;;;;;;6175198;23;20137;-80
2021/05/12 02:56:59;;;;;;;14.13;12.80;;;18.50;55.30;;;;;;6175641;23;20182;-80
2021/05/12 02:59:25;;;;;;;15.00;13.55;;;18.50;55.30;;;;;;6175283;23;20571;-79
2021/05/12 03:01:51;;;;;;;14.85;13.35;;;18.50;55.30;;;;;;6150008;23;20166;-80
2021/05/12 03:04:17;;;;;;;14.10;12.63;;;18.50;55.30;;;;;;6150946;23;20633;-80
2021/05/12 03:06:45;;;;;;;14.50;13.10;;;18.50;55.40;;;;;;6175452;23;20552;-79
2021/05/12 03:09:11;;;;;;;15.07;13.48;;;18.50;55.40;;;;;;6174763;23;20151;-80
2021/05/12 03:11:40;;;;;;;14.68;13.18;;;18.50;55.30;;;;;;6174470;23;20158;-80
2021/05/12 03:14:08;;;;;;;14.68;13.27;;;18.50;55.40;;;;;;6150867;23;20139;-80
2021/05/12 03:16:42;;;;;;;14.65;13.18;;;18.50;55.40;;;;;;6175022;23;20192;-80
2021/05/12 03:19:17;;;;;;;14.35;12.93;;;18.50;55.40;;;;;;6150171;23;20134;-80
2021/05/12 03:21:42;;;;;;;14.15;12.82;;;18.50;55.50;;;;;;6150536;23;20138;-80
2021/05/12 03:24:08;;;;;;;14.82;13.32;;;18.50;55.40;;;;;;6150291;23;20162;-80
2021/05/12 03:26:35;;;;;;;14.43;12.93;;;18.50;55.50;;;;;;6174748;23;20195;-80
2021/05/12 03:29:02;;;;;;;14.95;13.45;;;18.50;55.50;;;;;;6174781;23;20138;-80
2021/05/12 03:31:28;;;;;;;13.93;12.52;;;18.50;55.40;;;;;;6175192;23;20254;-79
2021/05/12 03:33:56;;;;;;;14.60;13.18;;;18.50;55.40;;;;;;6175406;23;20131;-79
2021/05/12 03:36:26;;;;;;;14.40;13.00;;;18.50;55.40;;;;;;6175187;23;20127;-80
2021/05/12 03:38:52;;;;;;;13.75;12.43;;;18.50;55.50;;;;;;6149930;23;20225;-79
2021/05/12 03:41:19;;;;;;;14.48;13.00;;;18.50;55.50;;;;;;6175909;23;20139;-79
2021/05/12 03:43:53;;;;;;;14.95;13.38;;;18.50;55.50;;;;;;6174819;23;20225;-80
2021/05/12 03:46:28;;;;;;;14.35;12.95;;;18.50;55.50;;;;;;6173926;23;20143;-80
2021/05/12 03:48:54;;;;;;;14.77;13.38;;;18.50;55.50;;;;;;6201202;23;20461;-79
2021/05/12 03:51:29;;;;;;;15.00;13.48;;;18.50;55.50;;;;;;6174980;23;20547;-79
2021/05/12 03:53:54;;;;;;;13.93;12.50;;;18.50;55.50;;;;;;6174914;23;20166;-80
2021/05/12 03:56:21;;;;;;;14.05;12.70;;;18.50;55.40;;;;;;6174538;23;20434;-79
2021/05/12 03:58:47;;;;;;;14.93;13.27;;;18.50;55.40;;;;;;6174675;23;20131;-79
2021/05/12 04:01:21;;;;;;;14.18;12.77;;;18.50;55.40;;;;;;6200446;23;20142;-79
2021/05/12 04:03:47;;;;;;;14.48;13.02;;;18.50;55.30;;;;;;6173869;23;20181;-79
2021/05/12 04:06:22;;;;;;;14.13;12.73;;;18.50;55.30;;;;;;6174248;23;20135;-79
2021/05/12 04:08:57;;;;;;;14.18;12.68;;;18.50;55.10;;;;;;6200672;23;20130;-79
2021/05/12 04:11:31;;;;;;;14.68;13.27;;;18.60;54.90;;;;;;6174657;23;20482;-79
2021/05/12 04:13:57;;;;;;;14.95;13.45;;;18.70;54.80;;;;;;6200841;23;20127;-79
2021/05/12 04:16:30;;;;;;;14.40;13.00;;;18.60;54.90;;;;;;6200172;23;20177;-79
2021/05/12 04:18:56;;;;;;;12.98;11.68;;;18.70;54.80;;;;;;6200498;23;20162;-79
2021/05/12 04:21:23;;;;;;;14.25;12.90;;;18.60;54.80;;;;;;6200753;23;20131;-79
2021/05/12 04:23:55;;;;;;;14.35;12.95;;;18.60;55.00;;;;;;6200658;23;20174;-79
2021/05/12 04:26:22;;;;;;;13.73;12.43;;;18.60;54.90;;;;;;6174658;23;20131;-81
2021/05/12 04:28:56;;;;;;;14.40;12.98;;;18.60;54.70;;;;;;6200450;23;20131;-79
2021/05/12 04:31:22;;;;;;;13.68;12.35;;;18.60;54.80;;;;;;6199576;23;20145;-79
2021/05/12 04:33:56;;;;;;;14.18;12.77;;;18.60;54.80;;;;;;6150264;23;20158;-79
2021/05/12 04:36:30;;;;;;;14.35;12.95;;;18.60;54.70;;;;;;6174841;23;20151;-79
2021/05/12 04:38:57;;;;;;;14.20;12.80;;;18.70;54.60;;;;;;6200987;23;20137;-79
2021/05/12 04:41:27;;;;;;;13.85;12.48;;;18.70;54.60;;;;;;6174168;23;20167;-80
2021/05/12 04:43:57;;;;;;;14.30;12.90;;;18.70;54.60;;;;;;6199960;23;20171;-80
2021/05/12 04:46:32;;;;;;;13.40;12.07;;;18.70;54.60;;;;;;6149819;23;20588;-79
2021/05/12 04:49:00;;;;;;;14.38;12.98;;;18.70;54.40;;;;;;6174949;23;20651;-79
2021/05/12 04:51:29;;;;;;;13.10;11.80;;;18.70;54.40;;;;;;6174096;23;20127;-80
2021/05/12 04:54:04;;;;;;;13.25;11.95;;;18.70;54.30;;;;;;6200686;23;20131;-79
2021/05/12 04:56:39;;;;;;;13.27;11.98;;;18.80;54.30;;;;;;6174971;23;20218;-80
2021/05/12 04:59:05;;;;;;;13.05;11.85;;;18.80;54.30;;;;;;6173505;23;20150;-81
2021/05/12 05:01:32;;;;;;;13.00;11.70;;;18.80;54.20;;;;;;6164262;23;20131;-83
2021/05/12 05:04:05;;;;;;;13.35;12.15;;;18.80;54.10;;;;;;6165663;23;20135;-84
2021/05/12 05:06:33;;;;;;;13.70;12.40;;;18.80;54.20;;;;;;6142561;23;20205;-81
2021/05/12 05:09:06;;;;;;;13.68;12.40;;;18.80;54.10;;;;;;6144236;23;20162;-81
2021/05/12 05:11:32;;;;;;;13.88;12.57;;;18.80;54.10;;;;;;6169039;23;20131;-81
2021/05/12 05:13:58;;;;;;;13.90;12.50;;;18.80;54.10;;;;;;6171054;23;20151;-81
2021/05/12 05:16:24;;;;;;;12.95;11.75;;;18.80;54.30;;;;;;6168341;23;20135;-80
2021/05/12 05:18:51;;;;;;;13.70;12.38;;;18.80;54.20;;;;;;6168468;23;20135;-84
2021/05/12 05:21:17;;;;;;;12.32;11.13;;;18.80;54.10;;;;;;6168965;23;20131;-80
2021/05/12 05:23:48;;;;;;;13.50;12.20;;;18.80;54.10;;;;;;6168796;23;20216;-82
2021/05/12 05:26:14;;;;;;;12.63;11.43;;;18.80;54.20;;;;;;6168182;23;20151;-80
2021/05/12 05:28:43;;;;;;;14.07;12.68;;;18.80;54.30;;;;;;6167907;23;20135;-81
2021/05/12 05:31:09;;;;;;;13.05;11.75;;;18.80;54.30;;;;;;6169308;23;20555;-83
2021/05/12 05:33:36;;;;;;;13.40;12.10;;;18.90;54.20;;;;;;6170980;23;20146;-81
2021/05/12 05:36:03;;;;;;;13.57;12.27;;;18.90;54.00;;;;;;6196989;23;20139;-81
2021/05/12 05:38:29;;;;;;;13.27;11.98;;;18.90;54.10;;;;;;6146127;23;20485;-82
2021/05/12 05:40:55;;;;;;;13.75;12.45;;;18.90;53.70;;;;;;6172958;23;20155;-78
2021/05/12 05:43:31;;;;;;;13.30;12.00;;;18.90;53.90;;;;;;6175444;23;20162;-78
2021/05/12 05:45:57;;;;;;;12.63;11.35;;;18.90;53.90;;;;;;6176241;23;20198;-78
2021/05/12 05:48:24;;;;;;;12.13;11.00;;;18.90;53.90;;;;;;6175330;23;20127;-78
2021/05/12 05:50:50;;;;;;;13.02;11.77;;;18.90;53.90;;;;;;6150849;23;20149;-78
2021/05/12 05:53:21;;;;;;;13.55;12.25;;;18.90;53.90;;;;;;6175577;23;20135;-79
2021/05/12 05:55:48;;;;;;;13.10;11.85;;;18.90;53.90;;;;;;6150752;23;20219;-78
2021/05/12 05:58:14;;;;;;;12.90;11.70;;;18.90;53.90;;;;;;6175457;23;20467;-78
2021/05/12 06:00:41;;;;;;;13.40;12.00;;;18.90;53.90;;;;;;6151650;23;20149;-78
2021/05/12 06:03:09;;;;;;;12.55;11.35;;;18.90;53.90;;;;;;6151232;23;20258;-78
2021/05/12 06:05:36;;;;;;;13.00;11.70;;;18.90;54.00;;;;;;6150589;23;20139;-78
2021/05/12 06:08:03;;;;;;;13.00;11.70;;;18.80;54.10;;;;;;6201486;23;20135;-78
2021/05/12 06:10:29;;;;;;;12.50;11.30;;;18.80;54.10;;;;;;6150110;23;20151;-78
2021/05/12 06:12:56;;;;;;;12.90;11.50;;;18.80;54.10;;;;;;6174136;23;20142;-78
2021/05/12 06:15:30;;;;;;;13.25;11.95;;;18.80;54.10;;;;;;6175474;23;20131;-78
2021/05/12 06:17:56;;;;;;;13.27;11.75;;;18.80;54.10;;;;;;6146301;23;20135;-80
2021/05/12 06:20:23;;;;;;;12.65;11.38;;;18.80;54.00;;;;;;6169095;23;20215;-80
2021/05/12 06:22:58;;;;;;;12.73;11.52;;;18.80;54.10;;;;;;6187249;23;20241;-82
2021/05/12 06:25:25;;;;;;;13.90;12.55;;;18.80;54.10;;;;;;6187108;23;20139;-80
2021/05/12 06:27:53;;;;;;;12.90;11.57;;;18.80;54.10;;;;;;6161689;23;20205;-84
2021/05/12 06:30:44;;;;;;;;;;;;;;;;;;;;;
2021/05/12 06:33:29;;;;;;;11.88;10.68;;;18.80;54.00;;;;;;6165986;23;20285;-82
2021/05/12 06:35:57;;;;;;;12.98;11.70;;;18.90;54.00;;;;;;6140801;23;20523;-80
2021/05/12 06:38:31;;;;;;;12.10;10.90;;;18.90;53.90;;;;;;6142421;23;20200;-80
2021/05/12 06:41:08;;;;;;;11.30;10.20;;;18.90;53.90;;;;;;6163690;23;20135;-82
2021/05/12 06:43:37;;;;;;;12.27;11.00;;;19.00;53.80;;;;;;6164236;23;20261;-81
2021/05/12 06:46:05;;;;;;;11.90;10.48;;;19.00;53.90;;;;;;6140519;23;20139;-79
2021/05/12 06:49:13;;;;;;;12.63;11.43;;;19.00;53.80;;;;;;6165925;23;20601;-81
2021/05/12 06:51:57;;;;;;;12.63;11.43;;;18.90;53.80;;;;;;6113693;23;20161;-82
2021/05/12 06:54:26;;;;;;;11.82;10.65;;;18.90;53.90;;;;;;6134819;23;20138;-82
2021/05/12 06:56:52;;;;;;;12.38;11.13;;;18.90;53.90;;;;;;6160481;23;20502;-80
2021/05/12 06:59:18;;;;;;;12.63;11.32;;;18.90;53.90;;;;;;6190362;23;20130;-79
2021/05/12 07:01:43;;;;;;;12.73;11.48;;;19.00;53.90;;;;;;6191552;23;20135;-79
2021/05/12 07:04:13;;;;;;;12.25;11.00;;;19.00;54.60;;;;;;6164560;23;20151;-78
2021/05/12 07:06:39;;;;;;;11.88;10.60;;;18.90;54.00;;;;;;6193089;23;20578;-78
2021/05/12 07:09:06;;;;;;;11.63;10.52;;;18.90;54.00;;;;;;6190193;23;20134;-78
2021/05/12 07:11:32;;;;;;;11.55;10.48;;;18.90;54.00;;;;;;6191907;23;20127;-78
2021/05/12 07:13:59;;;;;;;12.48;11.32;;;18.90;53.90;;;;;;6165861;23;20155;-78
2021/05/12 07:16:24;;;;;;;12.93;11.73;;;18.90;54.00;;;;;;6192500;23;20146;-77
2021/05/12 07:18:51;;;;;;;12.25;10.98;;;18.90;54.10;;;;;;6165405;23;20135;-78
2021/05/12 07:21:16;;;;;;;12.25;11.05;;;18.90;54.00;;;;;;6190063;23;20139;-78
2021/05/12 07:23:44;;;;;;;13.43;11.20;;;19.00;54.00;;;;;;6189565;23;20554;-77
2021/05/12 07:26:12;;;;;;;12.50;11.27;;;19.00;53.90;;;;;;6190089;23;20135;-78
2021/05/12 07:28:39;;;;;;;11.80;10.70;;;18.90;54.00;;;;;;6191149;23;20131;-78
2021/05/12 07:31:05;;;;;;;11.82;10.73;;;18.90;54.10;;;;;;6191242;23;20574;-79
2021/05/12 07:33:32;;;;;;;12.07;10.45;;;18.90;54.20;;;;;;6165399;23;20269;-78
2021/05/12 07:36:00;;;;;;;12.55;11.35;;;19.00;54.10;;;;;;6195982;23;20186;-78
2021/05/12 07:38:28;;;;;;;11.75;10.57;;;18.90;54.10;;;;;;6199401;23;20138;-78
2021/05/12 07:40:57;;;;;;;12.15;10.90;;;19.00;53.90;;;;;;6197420;23;20135;-78
2021/05/12 07:43:23;;;;;;;12.10;10.90;;;19.00;53.90;;;;;;6198356;23;20173;-78
2021/05/12 07:45:49;;;;;;;12.38;11.18;;;19.00;53.80;;;;;;6172701;23;20435;-78
2021/05/12 07:48:16;;;;;;;14.32;10.35;;;19.00;53.90;;;;;;6145852;23;20174;-78
2021/05/12 07:50:41;;;;;;;11.32;10.15;;;19.00;53.70;;;;;;6166536;23;20157;-78
2021/05/12 07:53:08;;;;;;;11.52;10.40;;;19.00;53.70;;;;;;6163054;23;20217;-78
2021/05/12 07:55:34;;;;;;;12.32;11.13;;;19.10;53.60;;;;;;6189197;23;20190;-78
2021/05/12 07:58:00;;;;;;;11.65;10.52;;;19.10;53.60;;;;;;6163587;23;20138;-78
2021/05/12 08:00:26;;;;;;;12.10;10.93;;;19.10;53.60;;;;;;6162065;23;20254;-78
2021/05/12 08:02:53;;;;;;;12.25;10.90;;;19.10;53.60;;;;;;6190571;23;20190;-78
2021/05/12 08:05:19;;;;;;;13.52;11.15;;;19.00;53.60;;;;;;6192913;23;20137;-79
2021/05/12 08:07:45;;;;;;;14.77;11.10;;;19.00;53.80;;;;;;6188872;23;20154;-79
2021/05/12 08:10:13;;;;;;;14.32;10.48;;;19.00;53.70;;;;;;6191425;23;20448;-77
2021/05/12 08:12:40;;;;;;;13.30;10.80;;;19.00;53.80;;;;;;6193261;23;20201;-78
2021/05/12 08:15:08;;;;;;;14.07;10.18;;;19.10;53.70;;;;;;6193190;23;20225;-78
2021/05/12 08:17:35;;;;;;;12.52;11.23;;;19.10;53.60;;;;;;6142132;23;20154;-78
2021/05/12 08:20:02;;;;;;;17.65;10.35;;;19.10;53.60;;;;;;6193924;23;20138;-79
2021/05/12 08:22:31;;;;;;;14.05;11.10;;;19.10;53.60;;;;;;6144188;23;20510;-78
2021/05/12 08:24:58;;;;;;;16.17;10.48;;;19.10;53.50;;;;;;6194149;23;20135;-78
2021/05/12 08:27:32;;;;;;;15.35;10.77;;;19.10;53.50;;;;;;6167236;23;20131;-77
2021/05/12 08:30:00;;;;;;;15.50;10.90;;;19.10;53.50;;;;;;6196113;23;20130;-78
2021/05/12 08:32:26;;;;;;;33.03;12.23;;;19.10;53.50;;;;;;6193703;23;20188;-78
2021/05/12 08:34:55;;;;;;;23.38;10.80;;;19.20;53.50;;;;;;6192761;23;20146;-78
2021/05/12 08:37:22;;;;;;;16.65;11.23;;;19.20;53.30;;;;;;6165547;23;20138;-78
2021/05/12 08:39:49;;;;;;;20.83;10.50;;;19.20;53.30;;;;;;6192852;23;20194;-77
2021/05/12 08:42:15;;;;;;;17.25;10.13;;;19.20;53.30;;;;;;6191052;23;20264;-78
2021/05/12 08:44:43;;;;;;;18.42;9.88;;;19.20;53.20;;;;;;6193828;23;20146;-79
2021/05/12 08:47:09;;;;;;;18.13;10.88;;;19.20;53.10;;;;;;6172613;23;20137;-79
2021/05/12 08:49:36;;;;;;;22.17;9.98;;;19.20;53.20;;;;;;6171477;23;20138;-80
2021/05/12 08:52:04;;;;;;;18.92;11.32;;;19.20;53.10;;;;;;6172706;23;20131;-77
2021/05/12 08:54:31;;;;;;;20.83;10.98;;;19.30;53.10;;;;;;6172036;23;20169;-79
2021/05/12 08:56:57;;;;;;;27.08;10.50;;;19.20;53.10;;;;;;6170589;23;20173;-79
2021/05/12 08:59:23;;;;;;;19.15;10.73;;;19.20;53.00;;;;;;6196124;23;20602;-79
2021/05/12 09:01:50;;;;;;;22.77;10.63;;;19.20;53.20;;;;;;6196337;23;20131;-78
2021/05/12 09:04:16;;;;;;;21.88;10.23;;;19.20;53.00;;;;;;6142321;23;20146;-79
2021/05/12 09:06:43;;;;;;;22.23;11.27;;;19.20;53.00;;;;;;6169423;23;20134;-77
2021/05/12 09:09:09;;;;;;;23.35;10.38;;;19.20;53.20;;;;;;6195864;23;20582;-77
2021/05/12 09:11:35;;;;;;;36.97;10.80;;;19.20;53.40;;;;;;6168360;23;20154;-80
2021/05/12 09:14:38;;;;;;;27.20;10.73;;;19.20;53.50;;;;;;6192404;23;20130;-79
2021/05/12 09:17:04;;;;;;;26.30;10.77;;;19.20;53.40;;;;;;6186773;23;20222;-80
2021/05/12 09:19:31;;;;;;;33.08;10.68;;;19.20;53.20;;;;;;6167275;23;20561;-78
2021/05/12 09:22:10;;;;;;;22.50;10.38;;;19.20;53.30;;;;;;6196293;23;20246;-78
2021/05/12 09:24:42;;;;;;;30.98;10.77;;;19.30;53.30;;;;;;6172101;23;20153;-78
2021/05/12 09:27:13;;;;;;;27.52;10.77;;;19.20;53.40;;;;;;6143973;23;20470;-79
2021/05/12 09:29:41;;;;;;;32.63;10.35;;;19.20;53.30;;;;;;6190911;23;20332;-78
2021/05/12 09:32:13;;;;;;;26.20;11.07;;;19.30;53.30;;;;;;6167880;23;20218;-79
2021/05/12 09:35:06;;;;;;;30.13;10.88;;;19.30;53.40;;;;;;6197460;23;20158;-78
2021/05/12 09:37:34;;;;;;;32.35;10.57;;;19.30;53.60;;;;;;6196966;23;20166;-79
2021/05/12 09:40:04;;;;;;;25.45;10.82;;;19.30;53.50;;;;;;6198076;23;20131;-79
2021/05/12 09:42:30;;;;;;;22.05;10.02;;;19.30;53.90;;;;;;6167750;23;20645;-79
2021/05/12 09:45:20;;;;;;;28.50;10.82;;;19.40;53.20;;;;;;6194536;23;20135;-80
2021/05/12 09:47:50;;;;;;;22.63;10.23;;;19.40;53.10;;;;;;6168462;23;20127;-80
2021/05/12 09:50:24;;;;;;;25.33;10.88;;;19.40;53.00;;;;;;6166390;23;20138;-80
2021/05/12 09:53:05;;;;;;;24.20;10.93;;;19.40;53.00;;;;;;6170589;23;20131;-80
2021/05/12 09:55:46;;;;;;;18.05;10.50;;;19.40;52.80;;;;;;6142434;23;20151;-80
2021/05/12 09:58:18;;;;;;;24.95;10.70;;;19.40;52.80;;;;;;6163751;23;20193;-80
2021/05/12 10:00:45;;;;;;;18.65;9.77;;;19.40;52.80;;;;;;6164234;23;20130;-80
2021/05/12 10:03:12;;;;;;;27.70;11.07;;;19.50;52.60;;;;;;6167137;23;20201;-80
2021/05/12 10:05:53;;;;;;;20.52;11.32;;;19.50;52.70;;;;;;6195046;23;20219;-79
2021/05/12 10:08:23;;;;;;;19.83;9.85;;;19.40;52.90;;;;;;6195434;23;20570;-78
2021/05/12 10:11:01;;;;;;;20.13;10.43;;;19.40;52.80;;;;;;6168172;23;20139;-79
2021/05/12 10:13:30;;;;;;;26.75;10.48;;;19.30;53.20;;;;;;6143004;23;20178;-78
2021/05/12 10:15:56;;;;;;;19.95;10.48;;;19.30;53.10;;;;;;6194094;23;20127;-78
2021/05/12 10:18:22;;;;;;;18.25;9.40;;;19.30;52.80;;;;;;6167387;23;20185;-78
2021/05/12 10:20:48;;;;;;;17.27;9.27;;;19.40;53.00;;;;;;6165211;23;20575;-79
2021/05/12 10:23:14;;;;;;;17.60;9.57;;;19.40;52.70;;;;;;6138922;23;20196;-79
2021/05/12 10:25:40;;;;;;;23.48;10.90;;;19.40;53.00;;;;;;6163717;23;20135;-78
2021/05/12 10:28:10;;;;;;;15.57;9.88;;;19.40;52.80;;;;;;6167483;23;20496;-79
2021/05/12 10:30:36;;;;;;;20.13;10.43;;;19.40;52.80;;;;;;6166022;23;20131;-78
2021/05/12 10:33:12;;;;;;;18.90;9.30;;;19.40;52.80;;;;;;6166122;23;20190;-77
2021/05/12 10:35:39;;;;;;;19.35;9.95;;;19.40;52.60;;;;;;6166371;23;20143;-79
2021/05/12 10:38:07;;;;;;;20.35;9.98;;;19.40;52.40;;;;;;6165789;23;20131;-78
2021/05/12 10:40:46;;;;;;;19.95;9.93;;;19.40;52.50;;;;;;6165131;23;20131;-77
2021/05/12 10:43:39;;;;;;;15.35;9.77;;;19.40;52.70;;;;;;6167063;23;20170;-78
2021/05/12 10:46:16;;;;;;;18.27;9.90;;;19.40;52.50;;;;;;6168409;23;20174;-78
2021/05/12 10:48:51;;;;;;;17.27;9.85;;;19.40;52.60;;;;;;6169870;23;20135;-78
2021/05/12 10:51:22;;;;;;;17.70;9.45;;;19.30;52.80;;;;;;6194076;23;20169;-77
2021/05/12 10:53:49;;;;;;;19.83;10.07;;;19.30;52.50;;;;;;6167317;23;20151;-79
2021/05/12 10:56:16;;;;;;;24.35;10.90;;;19.40;52.70;;;;;;6167960;23;20169;-78
2021/05/12 10:58:56;;;;;;;18.10;10.52;;;19.30;52.70;;;;;;6168150;23;20143;-78
2021/05/12 11:01:32;;;;;;;14.38;9.20;;;19.30;52.90;;;;;;6195206;23;20123;-79
2021/05/12 11:04:02;;;;;;;16.88;9.77;;;19.30;52.60;;;;;;6194379;23;20546;-79
2021/05/12 11:06:38;;;;;;;15.65;8.52;;;19.40;52.80;;;;;;6194296;23;20135;-80
2021/05/12 11:09:11;;;;;;;14.75;9.93;;;19.40;53.10;;;;;;6192358;23;20138;-80
2021/05/12 11:11:52;;;;;;;17.33;9.82;;;19.40;52.70;;;;;;6191239;23;20131;-78
2021/05/12 11:14:25;;;;;;;16.85;9.93;;;19.40;52.90;;;;;;6189875;23;20181;-79
2021/05/12 11:17:21;;;;;;;15.20;10.07;;;19.30;53.40;;;;;;6190355;23;20175;-77
2021/05/12 11:20:02;;;;;;;16.08;9.57;;;19.30;52.80;;;;;;6190092;23;20195;-77
2021/05/12 11:33:07;;;;;;;13.57;9.15;;;19.30;52.40;;;;;;6186967;23;20196;-80
2021/05/12 11:35:35;;;;;;;17.55;8.93;;;19.40;51.90;;;;;;6187503;23;20170;-80
2021/05/12 11:38:01;;;;;;;13.02;8.15;;;19.40;51.90;;;;;;6162169;23;20135;-80
2021/05/12 11:40:30;;;;;;;16.13;8.68;;;19.40;52.10;;;;;;6164401;23;20443;-80
2021/05/12 11:43:01;;;;;;;15.00;8.52;;;19.40;51.90;;;;;;6169925;23;20511;-77
2021/05/12 11:45:38;;;;;;;11.70;8.38;;;19.50;51.90;;;;;;6196049;23;20137;-80
2021/05/12 11:48:07;;;;;;;13.80;9.02;;;19.50;51.70;;;;;;6167834;23;20151;-84
2021/05/12 11:50:36;;;;;;;10.35;7.93;;;19.50;51.90;;;;;;6195829;23;20460;-84
2021/05/12 11:53:03;;;;;;;13.95;8.85;;;19.50;52.00;;;;;;6139768;23;20200;-81
2021/05/12 11:55:33;;;;;;;14.73;8.43;;;19.40;52.00;;;;;;6162578;23;20151;-80
2021/05/12 11:58:01;;;;;;;14.00;8.27;;;19.40;52.00;;;;;;6140997;23;20138;-79
2021/05/12 12:00:32;;;;;;;13.18;7.82;;;19.40;52.10;;;;;;6189027;23;20123;-78
2021/05/12 12:03:09;;;;;;;13.43;8.00;;;19.40;51.90;;;;;;6116752;23;20189;-79
2021/05/12 12:05:42;;;;;;;13.50;8.23;;;19.40;51.70;;;;;;6162423;23;20248;-79
2021/05/12 12:08:15;;;;;;;13.57;8.02;;;19.40;51.90;;;;;;6188750;23;20555;-79
2021/05/12 12:10:42;;;;;;;10.75;8.35;;;19.40;51.90;;;;;;6160979;23;20613;-78
2021/05/12 12:13:30;;;;;;;9.77;8.02;;;19.30;51.70;;;;;;6160866;23;20567;-79
2021/05/12 12:15:57;;;;;;;9.95;7.45;;;19.40;51.80;;;;;;6184544;23;20139;-80
2021/05/12 12:18:35;;;;;;;7.85;6.75;;;19.30;51.60;;;;;;6160700;23;20131;-80
2021/05/12 12:21:02;;;;;;;12.80;8.43;;;19.40;51.40;;;;;;6161981;23;20138;-79
2021/05/12 12:23:49;;;;;;;12.07;8.38;;;19.40;51.60;;;;;;6162875;23;20242;-78
2021/05/12 12:26:17;;;;;;;11.45;8.43;;;19.40;51.80;;;;;;6161192;23;20599;-79
2021/05/12 12:29:09;;;;;;;13.35;8.00;;;19.30;51.80;;;;;;6189405;23;20559;-80
2021/05/12 12:31:54;;;;;;;11.57;8.13;;;19.40;51.80;;;;;;6159452;23;20240;-81
2021/05/12 12:34:40;;;;;;;12.60;8.35;;;19.40;51.60;;;;;;6162852;23;20133;-78
2021/05/12 12:37:31;;;;;;;10.57;7.35;;;19.30;51.70;;;;;;6188736;23;20594;-79
2021/05/12 12:40:11;;;;;;;7.13;6.43;;;19.30;51.50;;;;;;6163583;23;20127;-79
2021/05/12 12:42:43;;;;;;;10.80;8.05;;;19.40;51.20;;;;;;6138744;23;20178;-78
2021/05/12 12:45:27;;;;;;;8.88;7.00;;;19.50;51.00;;;;;;6139627;23;20150;-79
2021/05/12 12:48:08;;;;;;;10.68;7.40;;;19.40;50.90;;;;;;6163430;23;20579;-80
2021/05/12 12:50:35;;;;;;;8.15;6.43;;;19.40;51.00;;;;;;6164400;23;20138;-79
2021/05/12 12:53:02;;;;;;;10.50;7.45;;;19.40;50.70;;;;;;6163712;23;20646;-79
2021/05/12 12:55:31;;;;;;;9.18;6.90;;;19.40;50.90;;;;;;6138573;23;20551;-78